sensor_id;sensor_type;location;lat;lon;timestamp;P1;durP1;ratioP1;P2;durP2;ratioP2
41077;SDS011;26823;42.662;23.352;2022-10-14T00:01:55;2.95;;;2.30;;
41077;SDS011;26823;42.662;23.352;2022-10-14T00:04:21;5.10;;;2.50;;
41077;SDS011;26823;42.662;23.352;2022-10-14T00:06:46;3.97;;;2.80;;
41077;SDS011;26823;42.662;23.352;2022-10-14T00:09:11;5.72;;;2.90;;
41077;SDS011;26823;42.662;23.352;2022-10-14T00:11:37;3.35;;;2.35;;
41077;SDS011;26823;42.662;23.352;2022-10-14T00:14:07;3.25;;;2.50;;
41077;SDS011;26823;42.662;23.352;2022-10-14T00:19:04;3.70;;;1.95;;
41077;SDS011;26823;42.662;23.352;2022-10-14T00:21:31;2.42;;;1.77;;
41077;SDS011;26823;42.662;23.352;2022-10-14T00:23:58;4.63;;;2.20;;
41077;SDS011;26823;42.662;23.352;2022-10-14T00:26:27;3.33;;;1.75;;
41077;SDS011;26823;42.662;23.352;2022-10-14T00:28:55;2.65;;;2.13;;
41077;SDS011;26823;42.662;23.352;2022-10-14T00:31:21;2.20;;;1.95;;
41077;SDS011;26823;42.662;23.352;2022-10-14T00:33:46;5.03;;;2.45;;
41077;SDS011;26823;42.662;23.352;2022-10-14T00:36:14;3.90;;;2.47;;
41077;SDS011;26823;42.662;23.352;2022-10-14T00:38:41;2.22;;;2.03;;
41077;SDS011;26823;42.662;23.352;2022-10-14T00:41:09;2.58;;;2.22;;
41077;SDS011;26823;42.662;23.352;2022-10-14T00:43:50;3.00;;;1.98;;
41077;SDS011;26823;42.662;23.352;2022-10-14T00:46:26;2.75;;;1.95;;
41077;SDS011;26823;42.662;23.352;2022-10-14T00:48:54;3.38;;;1.67;;
41077;SDS011;26823;42.662;23.352;2022-10-14T00:51:20;5.28;;;2.10;;
41077;SDS011;26823;42.662;23.352;2022-10-14T00:53:46;2.90;;;1.73;;
41077;SDS011;26823;42.662;23.352;2022-10-14T00:56:12;5.82;;;1.55;;
41077;SDS011;26823;42.662;23.352;2022-10-14T00:58:40;2.92;;;1.73;;
41077;SDS011;26823;42.662;23.352;2022-10-14T01:01:07;3.30;;;1.42;;
41077;SDS011;26823;42.662;23.352;2022-10-14T01:03:33;3.20;;;1.60;;
41077;SDS011;26823;42.662;23.352;2022-10-14T01:08:56;3.42;;;1.65;;
41077;SDS011;26823;42.662;23.352;2022-10-14T01:16:39;2.42;;;1.67;;
41077;SDS011;26823;42.662;23.352;2022-10-14T01:21:55;4.30;;;1.45;;
41077;SDS011;26823;42.662;23.352;2022-10-14T01:27:39;1.58;;;1.48;;
41077;SDS011;26823;42.662;23.352;2022-10-14T01:30:20;1.60;;;1.35;;
41077;SDS011;26823;42.662;23.352;2022-10-14T01:33:03;1.27;;;1.13;;
41077;SDS011;26823;42.662;23.352;2022-10-14T01:41:01;1.70;;;1.60;;
41077;SDS011;26823;42.662;23.352;2022-10-14T01:43:33;4.45;;;1.42;;
41077;SDS011;26823;42.662;23.352;2022-10-14T01:46:01;2.03;;;1.40;;
41077;SDS011;26823;42.662;23.352;2022-10-14T01:48:33;2.03;;;1.40;;
41077;SDS011;26823;42.662;23.352;2022-10-14T01:51:02;1.60;;;1.35;;
41077;SDS011;26823;42.662;23.352;2022-10-14T01:53:33;1.83;;;1.15;;
41077;SDS011;26823;42.662;23.352;2022-10-14T01:56:03;1.77;;;1.10;;
41077;SDS011;26823;42.662;23.352;2022-10-14T01:58:30;1.70;;;1.20;;
41077;SDS011;26823;42.662;23.352;2022-10-14T02:00:58;1.30;;;1.20;;
41077;SDS011;26823;42.662;23.352;2022-10-14T02:03:23;2.50;;;1.30;;
41077;SDS011;26823;42.662;23.352;2022-10-14T02:06:02;1.40;;;1.17;;
41077;SDS011;26823;42.662;23.352;2022-10-14T02:11:08;3.92;;;1.40;;
41077;SDS011;26823;42.662;23.352;2022-10-14T02:19:29;2.65;;;1.40;;
41077;SDS011;26823;42.662;23.352;2022-10-14T02:24:53;1.45;;;1.35;;
41077;SDS011;26823;42.662;23.352;2022-10-14T02:27:22;2.22;;;1.58;;
41077;SDS011;26823;42.662;23.352;2022-10-14T02:29:50;1.38;;;1.27;;
41077;SDS011;26823;42.662;23.352;2022-10-14T02:32:18;2.20;;;1.30;;
41077;SDS011;26823;42.662;23.352;2022-10-14T02:34:47;1.00;;;1.00;;
41077;SDS011;26823;42.662;23.352;2022-10-14T02:37:16;1.17;;;1.08;;
41077;SDS011;26823;42.662;23.352;2022-10-14T02:39:45;1.33;;;1.17;;
41077;SDS011;26823;42.662;23.352;2022-10-14T02:42:16;1.30;;;1.10;;
41077;SDS011;26823;42.662;23.352;2022-10-14T02:44:54;1.48;;;1.38;;
41077;SDS011;26823;42.662;23.352;2022-10-14T02:47:22;1.30;;;1.20;;
41077;SDS011;26823;42.662;23.352;2022-10-14T02:49:48;1.60;;;1.23;;
41077;SDS011;26823;42.662;23.352;2022-10-14T02:52:14;1.40;;;1.05;;
41077;SDS011;26823;42.662;23.352;2022-10-14T02:54:40;2.65;;;1.33;;
41077;SDS011;26823;42.662;23.352;2022-10-14T02:57:05;1.65;;;1.10;;
41077;SDS011;26823;42.662;23.352;2022-10-14T02:59:31;0.90;;;0.90;;
41077;SDS011;26823;42.662;23.352;2022-10-14T03:01:56;3.33;;;1.17;;
41077;SDS011;26823;42.662;23.352;2022-10-14T03:04:22;1.48;;;1.38;;
41077;SDS011;26823;42.662;23.352;2022-10-14T03:06:47;6.00;;;1.35;;
41077;SDS011;26823;42.662;23.352;2022-10-14T03:09:12;2.95;;;1.13;;
41077;SDS011;26823;42.662;23.352;2022-10-14T03:11:38;1.67;;;1.33;;
41077;SDS011;26823;42.662;23.352;2022-10-14T03:14:03;2.80;;;1.40;;
41077;SDS011;26823;42.662;23.352;2022-10-14T03:16:29;1.48;;;1.33;;
41077;SDS011;26823;42.662;23.352;2022-10-14T03:18:54;4.07;;;1.52;;
41077;SDS011;26823;42.662;23.352;2022-10-14T03:21:19;2.90;;;1.38;;
41077;SDS011;26823;42.662;23.352;2022-10-14T03:23:45;1.75;;;1.55;;
41077;SDS011;26823;42.662;23.352;2022-10-14T03:26:10;3.00;;;1.50;;
41077;SDS011;26823;42.662;23.352;2022-10-14T03:28:36;1.75;;;1.65;;
41077;SDS011;26823;42.662;23.352;2022-10-14T03:31:01;2.35;;;1.88;;
41077;SDS011;26823;42.662;23.352;2022-10-14T03:33:26;2.13;;;1.92;;
41077;SDS011;26823;42.662;23.352;2022-10-14T03:35:52;1.65;;;1.55;;
41077;SDS011;26823;42.662;23.352;2022-10-14T03:38:17;2.60;;;1.70;;
41077;SDS011;26823;42.662;23.352;2022-10-14T03:40:43;1.50;;;1.40;;
41077;SDS011;26823;42.662;23.352;2022-10-14T03:43:08;1.55;;;1.45;;
41077;SDS011;26823;42.662;23.352;2022-10-14T03:45:34;2.67;;;1.55;;
41077;SDS011;26823;42.662;23.352;2022-10-14T03:47:59;2.30;;;1.60;;
41077;SDS011;26823;42.662;23.352;2022-10-14T03:50:25;1.70;;;1.60;;
41077;SDS011;26823;42.662;23.352;2022-10-14T03:52:50;3.53;;;1.60;;
41077;SDS011;26823;42.662;23.352;2022-10-14T03:55:15;1.65;;;1.55;;
41077;SDS011;26823;42.662;23.352;2022-10-14T03:57:41;4.30;;;1.40;;
41077;SDS011;26823;42.662;23.352;2022-10-14T04:00:07;1.65;;;1.55;;
41077;SDS011;26823;42.662;23.352;2022-10-14T04:02:33;3.10;;;1.63;;
41077;SDS011;26823;42.662;23.352;2022-10-14T04:04:58;2.67;;;1.85;;
41077;SDS011;26823;42.662;23.352;2022-10-14T04:07:24;3.92;;;2.00;;
41077;SDS011;26823;42.662;23.352;2022-10-14T04:09:49;2.40;;;2.20;;
41077;SDS011;26823;42.662;23.352;2022-10-14T04:12:14;2.97;;;2.47;;
41077;SDS011;26823;42.662;23.352;2022-10-14T04:14:40;2.47;;;2.13;;
41077;SDS011;26823;42.662;23.352;2022-10-14T04:17:05;3.42;;;1.77;;
41077;SDS011;26823;42.662;23.352;2022-10-14T04:19:31;2.90;;;2.28;;
41077;SDS011;26823;42.662;23.352;2022-10-14T04:21:56;2.30;;;2.10;;
41077;SDS011;26823;42.662;23.352;2022-10-14T04:24:22;2.92;;;2.10;;
41077;SDS011;26823;42.662;23.352;2022-10-14T04:26:50;2.28;;;1.95;;
41077;SDS011;26823;42.662;23.352;2022-10-14T04:29:16;2.08;;;1.88;;
41077;SDS011;26823;42.662;23.352;2022-10-14T04:31:42;2.63;;;2.38;;
41077;SDS011;26823;42.662;23.352;2022-10-14T04:34:08;4.03;;;1.85;;
41077;SDS011;26823;42.662;23.352;2022-10-14T04:36:34;3.80;;;2.10;;
41077;SDS011;26823;42.662;23.352;2022-10-14T04:39:00;4.18;;;2.00;;
41077;SDS011;26823;42.662;23.352;2022-10-14T04:41:26;2.58;;;2.22;;
41077;SDS011;26823;42.662;23.352;2022-10-14T04:43:51;3.78;;;2.75;;
41077;SDS011;26823;42.662;23.352;2022-10-14T04:46:17;3.03;;;1.95;;
41077;SDS011;26823;42.662;23.352;2022-10-14T04:48:42;2.28;;;2.08;;
41077;SDS011;26823;42.662;23.352;2022-10-14T04:51:08;2.00;;;1.80;;
41077;SDS011;26823;42.662;23.352;2022-10-14T04:53:33;4.20;;;2.25;;
41077;SDS011;26823;42.662;23.352;2022-10-14T04:55:59;6.22;;;2.40;;
41077;SDS011;26823;42.662;23.352;2022-10-14T04:58:24;3.95;;;2.20;;
41077;SDS011;26823;42.662;23.352;2022-10-14T05:00:52;4.03;;;2.58;;
41077;SDS011;26823;42.662;23.352;2022-10-14T05:03:18;3.70;;;2.10;;
41077;SDS011;26823;42.662;23.352;2022-10-14T05:05:43;2.90;;;2.33;;
41077;SDS011;26823;42.662;23.352;2022-10-14T05:08:09;2.65;;;2.40;;
41077;SDS011;26823;42.662;23.352;2022-10-14T05:10:34;3.13;;;2.78;;
41077;SDS011;26823;42.662;23.352;2022-10-14T05:13:00;3.17;;;2.88;;
41077;SDS011;26823;42.662;23.352;2022-10-14T05:15:26;3.28;;;2.60;;
41077;SDS011;26823;42.662;23.352;2022-10-14T05:17:51;3.75;;;2.95;;
41077;SDS011;26823;42.662;23.352;2022-10-14T05:20:31;4.13;;;2.78;;
41077;SDS011;26823;42.662;23.352;2022-10-14T05:25:31;3.05;;;2.70;;
41077;SDS011;26823;42.662;23.352;2022-10-14T05:27:57;3.38;;;3.08;;
41077;SDS011;26823;42.662;23.352;2022-10-14T05:30:22;4.63;;;3.13;;
41077;SDS011;26823;42.662;23.352;2022-10-14T05:32:47;3.35;;;3.10;;
41077;SDS011;26823;42.662;23.352;2022-10-14T05:35:13;3.40;;;2.85;;
41077;SDS011;26823;42.662;23.352;2022-10-14T05:37:38;4.40;;;2.90;;
41077;SDS011;26823;42.662;23.352;2022-10-14T05:40:04;3.35;;;2.97;;
41077;SDS011;26823;42.662;23.352;2022-10-14T05:42:36;3.78;;;3.00;;
41077;SDS011;26823;42.662;23.352;2022-10-14T05:45:02;3.60;;;2.88;;
41077;SDS011;26823;42.662;23.352;2022-10-14T05:47:27;2.90;;;2.70;;
41077;SDS011;26823;42.662;23.352;2022-10-14T05:49:53;5.45;;;3.03;;
41077;SDS011;26823;42.662;23.352;2022-10-14T05:52:18;3.42;;;3.03;;
41077;SDS011;26823;42.662;23.352;2022-10-14T05:54:44;6.13;;;3.42;;
41077;SDS011;26823;42.662;23.352;2022-10-14T05:57:09;6.20;;;3.17;;
41077;SDS011;26823;42.662;23.352;2022-10-14T05:59:35;9.70;;;3.92;;
41077;SDS011;26823;42.662;23.352;2022-10-14T06:02:01;3.72;;;3.20;;
41077;SDS011;26823;42.662;23.352;2022-10-14T06:04:27;4.50;;;3.28;;
41077;SDS011;26823;42.662;23.352;2022-10-14T06:06:53;3.50;;;3.20;;
41077;SDS011;26823;42.662;23.352;2022-10-14T06:09:19;6.00;;;3.92;;
41077;SDS011;26823;42.662;23.352;2022-10-14T06:11:44;4.50;;;3.03;;
41077;SDS011;26823;42.662;23.352;2022-10-14T06:14:12;3.88;;;2.22;;
41077;SDS011;26823;42.662;23.352;2022-10-14T06:16:38;3.00;;;2.42;;
41077;SDS011;26823;42.662;23.352;2022-10-14T06:19:03;3.35;;;2.75;;
41077;SDS011;26823;42.662;23.352;2022-10-14T06:21:29;3.97;;;2.08;;
41077;SDS011;26823;42.662;23.352;2022-10-14T06:23:55;2.10;;;1.67;;
41077;SDS011;26823;42.662;23.352;2022-10-14T06:26:21;8.13;;;2.20;;
41077;SDS011;26823;42.662;23.352;2022-10-14T06:28:47;2.30;;;2.10;;
41077;SDS011;26823;42.662;23.352;2022-10-14T06:31:13;2.88;;;2.35;;
41077;SDS011;26823;42.662;23.352;2022-10-14T06:33:39;3.17;;;2.35;;
41077;SDS011;26823;42.662;23.352;2022-10-14T06:36:05;2.88;;;2.50;;
41077;SDS011;26823;42.662;23.352;2022-10-14T06:38:32;3.33;;;2.70;;
41077;SDS011;26823;42.662;23.352;2022-10-14T06:40:58;5.93;;;2.72;;
41077;SDS011;26823;42.662;23.352;2022-10-14T06:43:24;6.35;;;3.00;;
41077;SDS011;26823;42.662;23.352;2022-10-14T06:45:49;3.47;;;2.50;;
41077;SDS011;26823;42.662;23.352;2022-10-14T06:48:16;3.80;;;3.03;;
41077;SDS011;26823;42.662;23.352;2022-10-14T06:50:42;3.53;;;2.40;;
41077;SDS011;26823;42.662;23.352;2022-10-14T06:53:11;2.65;;;2.38;;
41077;SDS011;26823;42.662;23.352;2022-10-14T06:55:37;3.83;;;3.05;;
41077;SDS011;26823;42.662;23.352;2022-10-14T06:58:03;4.95;;;2.67;;
41077;SDS011;26823;42.662;23.352;2022-10-14T07:00:32;3.47;;;3.10;;
41077;SDS011;26823;42.662;23.352;2022-10-14T07:02:58;5.50;;;3.15;;
41077;SDS011;26823;42.662;23.352;2022-10-14T07:05:24;3.38;;;3.03;;
41077;SDS011;26823;42.662;23.352;2022-10-14T07:07:50;3.65;;;3.05;;
41077;SDS011;26823;42.662;23.352;2022-10-14T07:10:17;5.03;;;3.53;;
41077;SDS011;26823;42.662;23.352;2022-10-14T07:12:43;5.38;;;3.22;;
41077;SDS011;26823;42.662;23.352;2022-10-14T07:15:09;5.10;;;3.45;;
41077;SDS011;26823;42.662;23.352;2022-10-14T07:17:35;3.95;;;2.47;;
41077;SDS011;26823;42.662;23.352;2022-10-14T07:20:01;4.43;;;3.33;;
41077;SDS011;26823;42.662;23.352;2022-10-14T07:22:27;2.85;;;2.65;;
41077;SDS011;26823;42.662;23.352;2022-10-14T07:24:53;6.93;;;3.58;;
41077;SDS011;26823;42.662;23.352;2022-10-14T07:27:19;3.70;;;3.33;;
41077;SDS011;26823;42.662;23.352;2022-10-14T07:29:45;3.50;;;3.17;;
41077;SDS011;26823;42.662;23.352;2022-10-14T07:32:11;3.47;;;3.13;;
41077;SDS011;26823;42.662;23.352;2022-10-14T07:34:37;4.05;;;3.05;;
41077;SDS011;26823;42.662;23.352;2022-10-14T07:37:03;4.78;;;3.65;;
41077;SDS011;26823;42.662;23.352;2022-10-14T07:39:30;3.83;;;3.38;;
41077;SDS011;26823;42.662;23.352;2022-10-14T07:41:56;4.10;;;2.80;;
41077;SDS011;26823;42.662;23.352;2022-10-14T07:44:22;4.30;;;3.55;;
41077;SDS011;26823;42.662;23.352;2022-10-14T07:46:48;5.10;;;3.65;;
41077;SDS011;26823;42.662;23.352;2022-10-14T07:49:18;4.07;;;2.75;;
41077;SDS011;26823;42.662;23.352;2022-10-14T07:51:45;3.20;;;2.83;;
41077;SDS011;26823;42.662;23.352;2022-10-14T07:54:14;3.20;;;2.70;;
41077;SDS011;26823;42.662;23.352;2022-10-14T07:56:52;4.45;;;2.95;;
41077;SDS011;26823;42.662;23.352;2022-10-14T07:59:18;4.28;;;2.95;;
41077;SDS011;26823;42.662;23.352;2022-10-14T08:01:46;2.90;;;2.25;;
41077;SDS011;26823;42.662;23.352;2022-10-14T08:04:13;4.25;;;2.78;;
41077;SDS011;26823;42.662;23.352;2022-10-14T08:06:40;3.03;;;2.67;;
41077;SDS011;26823;42.662;23.352;2022-10-14T08:09:09;3.35;;;2.85;;
41077;SDS011;26823;42.662;23.352;2022-10-14T08:11:36;3.50;;;3.10;;
41077;SDS011;26823;42.662;23.352;2022-10-14T08:14:02;5.65;;;3.17;;
41077;SDS011;26823;42.662;23.352;2022-10-14T08:16:30;2.33;;;2.13;;
41077;SDS011;26823;42.662;23.352;2022-10-14T08:18:59;3.47;;;2.72;;
41077;SDS011;26823;42.662;23.352;2022-10-14T08:21:30;3.67;;;2.80;;
41077;SDS011;26823;42.662;23.352;2022-10-14T08:23:56;3.20;;;2.58;;
41077;SDS011;26823;42.662;23.352;2022-10-14T08:28:52;3.35;;;2.75;;
41077;SDS011;26823;42.662;23.352;2022-10-14T08:31:19;3.53;;;2.78;;
41077;SDS011;26823;42.662;23.352;2022-10-14T08:33:47;6.95;;;2.38;;
41077;SDS011;26823;42.662;23.352;2022-10-14T08:36:14;2.95;;;2.70;;
41077;SDS011;26823;42.662;23.352;2022-10-14T08:38:42;4.70;;;2.78;;
41077;SDS011;26823;42.662;23.352;2022-10-14T08:43:48;2.47;;;1.90;;
41077;SDS011;26823;42.662;23.352;2022-10-14T08:49:27;2.30;;;2.10;;
41077;SDS011;26823;42.662;23.352;2022-10-14T08:54:43;3.53;;;1.77;;
41077;SDS011;26823;42.662;23.352;2022-10-14T08:57:15;1.90;;;1.52;;
41077;SDS011;26823;42.662;23.352;2022-10-14T08:59:44;1.65;;;1.55;;
41077;SDS011;26823;42.662;23.352;2022-10-14T09:04:57;1.98;;;1.70;;
41077;SDS011;26823;42.662;23.352;2022-10-14T09:07:24;1.77;;;1.65;;
41077;SDS011;26823;42.662;23.352;2022-10-14T09:09:52;2.17;;;1.90;;
41077;SDS011;26823;42.662;23.352;2022-10-14T09:12:24;2.00;;;1.58;;
41077;SDS011;26823;42.662;23.352;2022-10-14T09:15:06;1.65;;;1.55;;
41077;SDS011;26823;42.662;23.352;2022-10-14T09:17:56;2.35;;;1.73;;
41077;SDS011;26823;42.662;23.352;2022-10-14T09:20:36;2.58;;;1.88;;
41077;SDS011;26823;42.662;23.352;2022-10-14T09:25:33;5.30;;;2.03;;
41077;SDS011;26823;42.662;23.352;2022-10-14T09:28:02;2.67;;;1.90;;
41077;SDS011;26823;42.662;23.352;2022-10-14T09:30:29;2.78;;;1.80;;
41077;SDS011;26823;42.662;23.352;2022-10-14T09:33:01;2.13;;;1.92;;
41077;SDS011;26823;42.662;23.352;2022-10-14T09:35:30;3.40;;;2.30;;
41077;SDS011;26823;42.662;23.352;2022-10-14T09:37:57;6.30;;;2.20;;
41077;SDS011;26823;42.662;23.352;2022-10-14T09:40:36;3.70;;;2.30;;
41077;SDS011;26823;42.662;23.352;2022-10-14T09:48:38;2.40;;;2.08;;
41077;SDS011;26823;42.662;23.352;2022-10-14T09:51:25;2.38;;;1.83;;
41077;SDS011;26823;42.662;23.352;2022-10-14T09:53:57;4.18;;;2.33;;
41077;SDS011;26823;42.662;23.352;2022-10-14T09:56:29;2.63;;;1.98;;
41077;SDS011;26823;42.662;23.352;2022-10-14T09:59:16;2.08;;;1.88;;
41077;SDS011;26823;42.662;23.352;2022-10-14T10:01:48;2.28;;;2.08;;
41077;SDS011;26823;42.662;23.352;2022-10-14T10:06:58;2.42;;;2.10;;
41077;SDS011;26823;42.662;23.352;2022-10-14T10:09:26;3.30;;;2.22;;
41077;SDS011;26823;42.662;23.352;2022-10-14T10:11:52;2.00;;;1.80;;
41077;SDS011;26823;42.662;23.352;2022-10-14T10:22:27;3.45;;;1.98;;
41077;SDS011;26823;42.662;23.352;2022-10-14T10:27:34;2.10;;;1.30;;
41077;SDS011;26823;42.662;23.352;2022-10-14T10:32:58;4.03;;;2.17;;
41077;SDS011;26823;42.662;23.352;2022-10-14T10:48:39;1.60;;;1.50;;
41077;SDS011;26823;42.662;23.352;2022-10-14T10:51:12;1.40;;;1.20;;
41077;SDS011;26823;42.662;23.352;2022-10-14T10:57:05;1.63;;;1.40;;
41077;SDS011;26823;42.662;23.352;2022-10-14T10:59:45;2.20;;;1.73;;
41077;SDS011;26823;42.662;23.352;2022-10-14T11:07:57;1.85;;;1.40;;
41077;SDS011;26823;42.662;23.352;2022-10-14T11:16:31;0.93;;;0.90;;
41077;SDS011;26823;42.662;23.352;2022-10-14T11:35:50;0.60;;;0.57;;
41077;SDS011;26823;42.662;23.352;2022-10-14T11:46:18;0.43;;;0.43;;
41077;SDS011;26823;42.662;23.352;2022-10-14T11:48:55;0.50;;;0.50;;
41077;SDS011;26823;42.662;23.352;2022-10-14T11:56:48;0.52;;;0.50;;
41077;SDS011;26823;42.662;23.352;2022-10-14T12:01:53;1.00;;;0.73;;
41077;SDS011;26823;42.662;23.352;2022-10-14T12:04:30;0.50;;;0.40;;
41077;SDS011;26823;42.662;23.352;2022-10-14T12:07:04;0.40;;;0.40;;
41077;SDS011;26823;42.662;23.352;2022-10-14T12:09:38;1.10;;;0.90;;
41077;SDS011;26823;42.662;23.352;2022-10-14T12:12:10;1.02;;;0.52;;
41077;SDS011;26823;42.662;23.352;2022-10-14T12:14:43;0.68;;;0.60;;
41077;SDS011;26823;42.662;23.352;2022-10-14T12:17:29;2.28;;;0.50;;
41077;SDS011;26823;42.662;23.352;2022-10-14T12:19:55;0.57;;;0.57;;
41077;SDS011;26823;42.662;23.352;2022-10-14T12:22:25;1.15;;;0.55;;
41077;SDS011;26823;42.662;23.352;2022-10-14T12:25:14;0.52;;;0.50;;
41077;SDS011;26823;42.662;23.352;2022-10-14T12:27:41;0.88;;;0.60;;
41077;SDS011;26823;42.662;23.352;2022-10-14T12:30:49;0.68;;;0.60;;
41077;SDS011;26823;42.662;23.352;2022-10-14T12:33:06;1.75;;;0.60;;
41077;SDS011;26823;42.662;23.352;2022-10-14T12:38:30;1.45;;;0.80;;
41077;SDS011;26823;42.662;23.352;2022-10-14T12:44:12;0.50;;;0.50;;
41077;SDS011;26823;42.662;23.352;2022-10-14T12:46:43;0.50;;;0.50;;
41077;SDS011;26823;42.662;23.352;2022-10-14T12:52:05;0.50;;;0.50;;
41077;SDS011;26823;42.662;23.352;2022-10-14T12:54:33;1.58;;;0.80;;
41077;SDS011;26823;42.662;23.352;2022-10-14T12:57:04;1.55;;;1.00;;
41077;SDS011;26823;42.662;23.352;2022-10-14T12:59:43;3.05;;;1.00;;
41077;SDS011;26823;42.662;23.352;2022-10-14T13:02:28;0.65;;;0.65;;
41077;SDS011;26823;42.662;23.352;2022-10-14T13:18:52;0.93;;;0.80;;
41077;SDS011;26823;42.662;23.352;2022-10-14T13:24:01;0.85;;;0.75;;
41077;SDS011;26823;42.662;23.352;2022-10-14T13:26:40;0.70;;;0.70;;
41077;SDS011;26823;42.662;23.352;2022-10-14T13:38:00;0.80;;;0.68;;
41077;SDS011;26823;42.662;23.352;2022-10-14T13:40:31;1.63;;;0.82;;
41077;SDS011;26823;42.662;23.352;2022-10-14T13:43:53;1.20;;;0.73;;
41077;SDS011;26823;42.662;23.352;2022-10-14T13:46:07;0.60;;;0.60;;
41077;SDS011;26823;42.662;23.352;2022-10-14T13:48:44;1.00;;;0.90;;
41077;SDS011;26823;42.662;23.352;2022-10-14T13:53:53;1.08;;;0.60;;
41077;SDS011;26823;42.662;23.352;2022-10-14T13:56:27;5.63;;;1.08;;
41077;SDS011;26823;42.662;23.352;2022-10-14T13:58:54;1.13;;;0.73;;
41077;SDS011;26823;42.662;23.352;2022-10-14T14:01:21;0.85;;;0.77;;
41077;SDS011;26823;42.662;23.352;2022-10-14T14:03:52;0.70;;;0.60;;
41077;SDS011;26823;42.662;23.352;2022-10-14T14:06:20;0.95;;;0.60;;
41077;SDS011;26823;42.662;23.352;2022-10-14T14:08:58;1.08;;;0.47;;
41077;SDS011;26823;42.662;23.352;2022-10-14T14:16:51;1.13;;;0.73;;
41077;SDS011;26823;42.662;23.352;2022-10-14T14:19:29;1.23;;;0.57;;
41077;SDS011;26823;42.662;23.352;2022-10-14T14:22:43;0.60;;;0.60;;
41077;SDS011;26823;42.662;23.352;2022-10-14T14:27:50;1.08;;;0.93;;
41077;SDS011;26823;42.662;23.352;2022-10-14T14:32:57;1.40;;;0.60;;
41077;SDS011;26823;42.662;23.352;2022-10-14T14:35:25;0.60;;;0.50;;
41077;SDS011;26823;42.662;23.352;2022-10-14T14:37:51;1.35;;;0.82;;
41077;SDS011;26823;42.662;23.352;2022-10-14T14:40:19;1.45;;;0.57;;
41077;SDS011;26823;42.662;23.352;2022-10-14T14:42:53;0.63;;;0.60;;
41077;SDS011;26823;42.662;23.352;2022-10-14T14:45:26;1.02;;;0.90;;
41077;SDS011;26823;42.662;23.352;2022-10-14T14:47:57;2.05;;;0.80;;
41077;SDS011;26823;42.662;23.352;2022-10-14T14:50:28;0.70;;;0.70;;
41077;SDS011;26823;42.662;23.352;2022-10-14T14:53:19;2.72;;;0.85;;
41077;SDS011;26823;42.662;23.352;2022-10-14T14:58:33;2.28;;;0.77;;
41077;SDS011;26823;42.662;23.352;2022-10-14T15:00:59;1.48;;;0.90;;
41077;SDS011;26823;42.662;23.352;2022-10-14T15:03:26;3.22;;;0.73;;
41077;SDS011;26823;42.662;23.352;2022-10-14T15:05:56;0.93;;;0.77;;
41077;SDS011;26823;42.662;23.352;2022-10-14T15:08:27;1.10;;;1.00;;
41077;SDS011;26823;42.662;23.352;2022-10-14T15:10:56;1.50;;;1.10;;
41077;SDS011;26823;42.662;23.352;2022-10-14T15:16:04;1.77;;;0.98;;
41077;SDS011;26823;42.662;23.352;2022-10-14T15:18:30;1.75;;;1.10;;
41077;SDS011;26823;42.662;23.352;2022-10-14T15:26:38;2.58;;;0.95;;
41077;SDS011;26823;42.662;23.352;2022-10-14T15:31:34;1.65;;;0.80;;
41077;SDS011;26823;42.662;23.352;2022-10-14T15:34:01;2.95;;;1.02;;
41077;SDS011;26823;42.662;23.352;2022-10-14T15:36:28;2.90;;;1.00;;
41077;SDS011;26823;42.662;23.352;2022-10-14T15:38:56;1.50;;;1.10;;
41077;SDS011;26823;42.662;23.352;2022-10-14T15:41:23;4.05;;;2.38;;
41077;SDS011;26823;42.662;23.352;2022-10-14T15:43:49;2.50;;;1.40;;
41077;SDS011;26823;42.662;23.352;2022-10-14T15:46:14;2.03;;;1.13;;
41077;SDS011;26823;42.662;23.352;2022-10-14T15:49:00;3.05;;;1.38;;
41077;SDS011;26823;42.662;23.352;2022-10-14T15:51:37;1.52;;;1.25;;
41077;SDS011;26823;42.662;23.352;2022-10-14T15:54:02;1.30;;;1.20;;
41077;SDS011;26823;42.662;23.352;2022-10-14T15:56:28;1.25;;;1.10;;
41077;SDS011;26823;42.662;23.352;2022-10-14T15:58:53;2.30;;;0.90;;
41077;SDS011;26823;42.662;23.352;2022-10-14T16:01:19;2.17;;;1.55;;
41077;SDS011;26823;42.662;23.352;2022-10-14T16:03:50;4.15;;;1.02;;
41077;SDS011;26823;42.662;23.352;2022-10-14T16:06:19;2.22;;;0.93;;
41077;SDS011;26823;42.662;23.352;2022-10-14T16:08:46;1.83;;;1.40;;
41077;SDS011;26823;42.662;23.352;2022-10-14T16:11:21;3.08;;;1.58;;
41077;SDS011;26823;42.662;23.352;2022-10-14T16:13:47;1.77;;;1.08;;
41077;SDS011;26823;42.662;23.352;2022-10-14T16:16:13;1.83;;;1.23;;
41077;SDS011;26823;42.662;23.352;2022-10-14T16:18:45;1.73;;;1.45;;
41077;SDS011;26823;42.662;23.352;2022-10-14T16:21:14;2.28;;;1.88;;
41077;SDS011;26823;42.662;23.352;2022-10-14T16:23:47;2.80;;;1.90;;
41077;SDS011;26823;42.662;23.352;2022-10-14T16:26:12;3.33;;;1.35;;
41077;SDS011;26823;42.662;23.352;2022-10-14T16:28:38;2.47;;;2.03;;
41077;SDS011;26823;42.662;23.352;2022-10-14T16:31:04;2.67;;;1.58;;
41077;SDS011;26823;42.662;23.352;2022-10-14T16:33:30;2.05;;;1.52;;
41077;SDS011;26823;42.662;23.352;2022-10-14T16:35:56;2.83;;;2.00;;
41077;SDS011;26823;42.662;23.352;2022-10-14T16:38:24;2.97;;;1.90;;
41077;SDS011;26823;42.662;23.352;2022-10-14T16:40:56;1.83;;;1.70;;
41077;SDS011;26823;42.662;23.352;2022-10-14T16:43:22;2.90;;;1.95;;
41077;SDS011;26823;42.662;23.352;2022-10-14T16:45:48;3.17;;;2.20;;
41077;SDS011;26823;42.662;23.352;2022-10-14T16:48:14;4.75;;;1.58;;
41077;SDS011;26823;42.662;23.352;2022-10-14T16:50:41;2.17;;;1.48;;
41077;SDS011;26823;42.662;23.352;2022-10-14T16:53:06;3.83;;;1.60;;
41077;SDS011;26823;42.662;23.352;2022-10-14T16:55:50;2.42;;;1.98;;
41077;SDS011;26823;42.662;23.352;2022-10-14T16:58:15;2.53;;;1.92;;
41077;SDS011;26823;42.662;23.352;2022-10-14T17:00:41;2.38;;;1.73;;
41077;SDS011;26823;42.662;23.352;2022-10-14T17:03:07;3.15;;;2.25;;
41077;SDS011;26823;42.662;23.352;2022-10-14T17:05:32;6.78;;;2.13;;
41077;SDS011;26823;42.662;23.352;2022-10-14T17:07:58;6.15;;;2.28;;
41077;SDS011;26823;42.662;23.352;2022-10-14T17:10:24;2.47;;;2.08;;
41077;SDS011;26823;42.662;23.352;2022-10-14T17:12:49;7.65;;;1.85;;
41077;SDS011;26823;42.662;23.352;2022-10-14T17:15:15;4.47;;;2.30;;
41077;SDS011;26823;42.662;23.352;2022-10-14T17:17:40;4.70;;;2.05;;
41077;SDS011;26823;42.662;23.352;2022-10-14T17:20:06;2.80;;;1.83;;
41077;SDS011;26823;42.662;23.352;2022-10-14T17:22:33;4.03;;;2.60;;
41077;SDS011;26823;42.662;23.352;2022-10-14T17:25:00;3.03;;;1.95;;
41077;SDS011;26823;42.662;23.352;2022-10-14T17:27:26;3.67;;;2.30;;
41077;SDS011;26823;42.662;23.352;2022-10-14T17:29:51;4.13;;;2.47;;
41077;SDS011;26823;42.662;23.352;2022-10-14T17:32:17;4.45;;;2.63;;
41077;SDS011;26823;42.662;23.352;2022-10-14T17:34:43;4.47;;;2.08;;
41077;SDS011;26823;42.662;23.352;2022-10-14T17:37:08;2.95;;;2.38;;
41077;SDS011;26823;42.662;23.352;2022-10-14T17:39:33;4.72;;;2.90;;
41077;SDS011;26823;42.662;23.352;2022-10-14T17:41:59;4.38;;;2.40;;
41077;SDS011;26823;42.662;23.352;2022-10-14T17:44:25;6.63;;;3.17;;
41077;SDS011;26823;42.662;23.352;2022-10-14T17:46:52;3.38;;;2.30;;
41077;SDS011;26823;42.662;23.352;2022-10-14T17:49:19;4.28;;;2.67;;
41077;SDS011;26823;42.662;23.352;2022-10-14T17:51:44;8.82;;;2.35;;
41077;SDS011;26823;42.662;23.352;2022-10-14T17:54:10;3.10;;;2.20;;
41077;SDS011;26823;42.662;23.352;2022-10-14T17:56:36;4.25;;;2.50;;
41077;SDS011;26823;42.662;23.352;2022-10-14T17:59:04;6.30;;;2.83;;